Terminal Aerodrome Forecast
Issued by NWS Brownsville, TX

Home | Current Version | Previous Version | Text Only | Print | Product List | Glossary On
Versions: 1 2 3 4 5 6 7 8 9 10 11 12 13 14 15 16 17 18 19 20 21 22
000
FTUS44 KBRO 301125
TAFBRO
TAF
KBRO 301125Z 3012/3112 32015G20KT P6SM SCT005 BKN010
     FM301230 32015KT P6SM FEW005 SCT010
     FM302100 04010KT P6SM SKC=

USA.gov is the U.S. government's official web portal to all federal, state and local government web resources and services.